sensor_id;sensor_type;location;lat;lon;timestamp;temperature;humidity
44431;DHT22;30135;47.866;-4.222;2023-12-04T00:01:58;12.70;99.90
44431;DHT22;30135;47.866;-4.222;2023-12-04T00:04:24;12.70;99.90
44431;DHT22;30135;47.866;-4.222;2023-12-04T00:06:50;12.60;99.90
44431;DHT22;30135;47.866;-4.222;2023-12-04T00:09:16;12.70;99.90
44431;DHT22;30135;47.866;-4.222;2023-12-04T00:11:42;12.70;99.90
44431;DHT22;30135;47.866;-4.222;2023-12-04T00:14:08;12.60;99.90
44431;DHT22;30135;47.866;-4.222;2023-12-04T00:16:34;12.70;99.90
44431;DHT22;30135;47.866;-4.222;2023-12-04T00:19:03;12.70;99.90
44431;DHT22;30135;47.866;-4.222;2023-12-04T00:21:29;12.70;99.90
44431;DHT22;30135;47.866;-4.222;2023-12-04T00:23:55;12.70;99.90
44431;DHT22;30135;47.866;-4.222;2023-12-04T00:26:21;12.70;99.90
44431;DHT22;30135;47.866;-4.222;2023-12-04T00:28:47;12.70;99.90
44431;DHT22;30135;47.866;-4.222;2023-12-04T00:31:13;12.70;99.90
44431;DHT22;30135;47.866;-4.222;2023-12-04T00:33:39;12.70;99.90
44431;DHT22;30135;47.866;-4.222;2023-12-04T00:36:05;12.70;99.90
44431;DHT22;30135;47.866;-4.222;2023-12-04T00:38:32;12.70;99.90
44431;DHT22;30135;47.866;-4.222;2023-12-04T00:40:58;12.70;99.90
44431;DHT22;30135;47.866;-4.222;2023-12-04T00:43:23;12.70;99.90
44431;DHT22;30135;47.866;-4.222;2023-12-04T00:45:50;12.70;99.90
44431;DHT22;30135;47.866;-4.222;2023-12-04T00:48:15;12.70;99.90
44431;DHT22;30135;47.866;-4.222;2023-12-04T00:50:41;12.80;99.90
44431;DHT22;30135;47.866;-4.222;2023-12-04T00:53:10;12.80;99.90
44431;DHT22;30135;47.866;-4.222;2023-12-04T00:55:36;12.70;99.90
44431;DHT22;30135;47.866;-4.222;2023-12-04T00:58:02;12.80;99.90
44431;DHT22;30135;47.866;-4.222;2023-12-04T01:00:28;12.80;99.90
44431;DHT22;30135;47.866;-4.222;2023-12-04T01:02:54;12.80;99.90
44431;DHT22;30135;47.866;-4.222;2023-12-04T01:05:20;12.80;99.90
44431;DHT22;30135;47.866;-4.222;2023-12-04T01:07:46;12.80;99.90
44431;DHT22;30135;47.866;-4.222;2023-12-04T01:10:12;12.80;99.90
44431;DHT22;30135;47.866;-4.222;2023-12-04T01:12:38;12.80;99.90
44431;DHT22;30135;47.866;-4.222;2023-12-04T01:15:04;12.80;99.90
44431;DHT22;30135;47.866;-4.222;2023-12-04T01:17:31;12.80;99.90
44431;DHT22;30135;47.866;-4.222;2023-12-04T01:19:57;12.80;99.90
44431;DHT22;30135;47.866;-4.222;2023-12-04T01:22:23;12.80;99.90
44431;DHT22;30135;47.866;-4.222;2023-12-04T01:24:49;12.80;99.90
44431;DHT22;30135;47.866;-4.222;2023-12-04T01:27:18;12.80;99.90
44431;DHT22;30135;47.866;-4.222;2023-12-04T01:29:45;12.80;99.90
44431;DHT22;30135;47.866;-4.222;2023-12-04T01:32:11;12.80;99.90
44431;DHT22;30135;47.866;-4.222;2023-12-04T01:34:37;12.80;99.90
44431;DHT22;30135;47.866;-4.222;2023-12-04T01:37:03;12.80;99.90
44431;DHT22;30135;47.866;-4.222;2023-12-04T01:39:34;12.80;99.90
44431;DHT22;30135;47.866;-4.222;2023-12-04T01:42:00;12.80;99.90
44431;DHT22;30135;47.866;-4.222;2023-12-04T01:44:26;12.80;99.90
44431;DHT22;30135;47.866;-4.222;2023-12-04T01:46:53;12.80;99.90
44431;DHT22;30135;47.866;-4.222;2023-12-04T01:49:20;12.80;99.90
44431;DHT22;30135;47.866;-4.222;2023-12-04T01:51:46;12.90;99.90
44431;DHT22;30135;47.866;-4.222;2023-12-04T01:54:13;12.80;99.90
44431;DHT22;30135;47.866;-4.222;2023-12-04T01:56:39;12.80;99.90
44431;DHT22;30135;47.866;-4.222;2023-12-04T01:59:05;12.80;99.90
44431;DHT22;30135;47.866;-4.222;2023-12-04T02:01:32;12.80;99.90
44431;DHT22;30135;47.866;-4.222;2023-12-04T02:03:59;12.90;99.90
44431;DHT22;30135;47.866;-4.222;2023-12-04T02:06:27;12.90;99.90
44431;DHT22;30135;47.866;-4.222;2023-12-04T02:08:53;12.90;99.90
44431;DHT22;30135;47.866;-4.222;2023-12-04T02:11:19;12.90;99.90
44431;DHT22;30135;47.866;-4.222;2023-12-04T02:13:45;12.90;99.90
44431;DHT22;30135;47.866;-4.222;2023-12-04T02:16:13;12.90;99.90
44431;DHT22;30135;47.866;-4.222;2023-12-04T02:18:40;12.90;99.90
44431;DHT22;30135;47.866;-4.222;2023-12-04T02:21:09;12.90;99.90
44431;DHT22;30135;47.866;-4.222;2023-12-04T02:23:35;12.90;99.90
44431;DHT22;30135;47.866;-4.222;2023-12-04T02:26:09;13.00;99.90
44431;DHT22;30135;47.866;-4.222;2023-12-04T02:28:37;13.00;99.90
44431;DHT22;30135;47.866;-4.222;2023-12-04T02:31:05;13.00;99.90
44431;DHT22;30135;47.866;-4.222;2023-12-04T02:33:33;13.00;99.90
44431;DHT22;30135;47.866;-4.222;2023-12-04T02:36:01;13.00;99.90
44431;DHT22;30135;47.866;-4.222;2023-12-04T02:38:28;13.00;99.90
44431;DHT22;30135;47.866;-4.222;2023-12-04T02:40:55;13.00;99.90
44431;DHT22;30135;47.866;-4.222;2023-12-04T02:43:21;13.00;99.90
44431;DHT22;30135;47.866;-4.222;2023-12-04T02:45:47;13.00;99.90
44431;DHT22;30135;47.866;-4.222;2023-12-04T02:48:14;13.00;99.90
44431;DHT22;30135;47.866;-4.222;2023-12-04T02:50:40;13.00;99.90
44431;DHT22;30135;47.866;-4.222;2023-12-04T02:53:06;13.00;99.90
44431;DHT22;30135;47.866;-4.222;2023-12-04T02:55:32;13.00;99.90
44431;DHT22;30135;47.866;-4.222;2023-12-04T02:57:58;13.00;99.90
44431;DHT22;30135;47.866;-4.222;2023-12-04T03:00:24;13.00;99.90
44431;DHT22;30135;47.866;-4.222;2023-12-04T03:02:51;12.90;99.90
44431;DHT22;30135;47.866;-4.222;2023-12-04T03:05:17;12.90;99.90
44431;DHT22;30135;47.866;-4.222;2023-12-04T03:07:45;12.90;99.90
44431;DHT22;30135;47.866;-4.222;2023-12-04T03:10:11;12.90;99.90
44431;DHT22;30135;47.866;-4.222;2023-12-04T03:12:38;12.90;99.90
44431;DHT22;30135;47.866;-4.222;2023-12-04T03:15:04;12.90;99.90
44431;DHT22;30135;47.866;-4.222;2023-12-04T03:17:31;12.90;99.90
44431;DHT22;30135;47.866;-4.222;2023-12-04T03:19:57;12.90;99.90
44431;DHT22;30135;47.866;-4.222;2023-12-04T03:22:24;12.90;99.90
44431;DHT22;30135;47.866;-4.222;2023-12-04T03:24:50;12.90;99.90
44431;DHT22;30135;47.866;-4.222;2023-12-04T03:27:19;12.90;99.90
44431;DHT22;30135;47.866;-4.222;2023-12-04T03:29:45;12.90;99.90
44431;DHT22;30135;47.866;-4.222;2023-12-04T03:32:11;12.90;99.90
44431;DHT22;30135;47.866;-4.222;2023-12-04T03:34:38;12.80;99.90
44431;DHT22;30135;47.866;-4.222;2023-12-04T03:37:07;12.90;99.90
44431;DHT22;30135;47.866;-4.222;2023-12-04T03:39:33;12.80;99.90
44431;DHT22;30135;47.866;-4.222;2023-12-04T03:41:59;12.80;99.90
44431;DHT22;30135;47.866;-4.222;2023-12-04T03:44:25;12.80;99.90
44431;DHT22;30135;47.866;-4.222;2023-12-04T03:46:51;12.80;99.90
44431;DHT22;30135;47.866;-4.222;2023-12-04T03:49:18;12.80;99.90
44431;DHT22;30135;47.866;-4.222;2023-12-04T03:51:44;12.80;99.90
44431;DHT22;30135;47.866;-4.222;2023-12-04T03:54:10;12.80;99.90
44431;DHT22;30135;47.866;-4.222;2023-12-04T03:56:37;12.80;99.90
44431;DHT22;30135;47.866;-4.222;2023-12-04T03:59:03;12.80;99.90
44431;DHT22;30135;47.866;-4.222;2023-12-04T04:01:29;12.70;99.90
44431;DHT22;30135;47.866;-4.222;2023-12-04T04:03:55;12.70;99.90
44431;DHT22;30135;47.866;-4.222;2023-12-04T04:06:21;12.70;99.90
44431;DHT22;30135;47.866;-4.222;2023-12-04T04:08:47;12.70;99.90
44431;DHT22;30135;47.866;-4.222;2023-12-04T04:11:13;12.80;99.90
44431;DHT22;30135;47.866;-4.222;2023-12-04T04:13:39;12.80;99.90
44431;DHT22;30135;47.866;-4.222;2023-12-04T04:16:06;12.80;99.90
44431;DHT22;30135;47.866;-4.222;2023-12-04T04:18:32;12.80;99.90
44431;DHT22;30135;47.866;-4.222;2023-12-04T04:20:58;12.80;99.90
44431;DHT22;30135;47.866;-4.222;2023-12-04T04:23:24;12.80;99.90
44431;DHT22;30135;47.866;-4.222;2023-12-04T04:25:50;12.80;99.90
44431;DHT22;30135;47.866;-4.222;2023-12-04T04:28:19;12.80;99.90
44431;DHT22;30135;47.866;-4.222;2023-12-04T04:30:46;12.80;99.90
44431;DHT22;30135;47.866;-4.222;2023-12-04T04:33:12;12.80;99.90
44431;DHT22;30135;47.866;-4.222;2023-12-04T04:35:38;12.80;99.90
44431;DHT22;30135;47.866;-4.222;2023-12-04T04:38:04;12.80;99.90
44431;DHT22;30135;47.866;-4.222;2023-12-04T04:40:30;12.70;99.90
44431;DHT22;30135;47.866;-4.222;2023-12-04T04:42:56;12.70;99.90
44431;DHT22;30135;47.866;-4.222;2023-12-04T04:45:23;12.70;99.90
44431;DHT22;30135;47.866;-4.222;2023-12-04T04:47:49;12.70;99.90
44431;DHT22;30135;47.866;-4.222;2023-12-04T04:50:15;12.70;99.90
44431;DHT22;30135;47.866;-4.222;2023-12-04T04:52:41;12.60;99.90
44431;DHT22;30135;47.866;-4.222;2023-12-04T04:55:11;12.50;99.90
44431;DHT22;30135;47.866;-4.222;2023-12-04T04:57:37;12.50;99.90
44431;DHT22;30135;47.866;-4.222;2023-12-04T05:00:03;12.50;99.90
44431;DHT22;30135;47.866;-4.222;2023-12-04T05:02:30;12.50;99.90
44431;DHT22;30135;47.866;-4.222;2023-12-04T05:04:56;12.40;99.90
44431;DHT22;30135;47.866;-4.222;2023-12-04T05:07:22;12.40;99.90
44431;DHT22;30135;47.866;-4.222;2023-12-04T05:09:49;12.40;99.90
44431;DHT22;30135;47.866;-4.222;2023-12-04T05:12:15;12.40;99.90
44431;DHT22;30135;47.866;-4.222;2023-12-04T05:14:42;12.40;99.90
44431;DHT22;30135;47.866;-4.222;2023-12-04T05:17:08;12.40;99.90
44431;DHT22;30135;47.866;-4.222;2023-12-04T05:19:34;12.40;99.90
44431;DHT22;30135;47.866;-4.222;2023-12-04T05:22:00;12.40;99.90
44431;DHT22;30135;47.866;-4.222;2023-12-04T05:24:29;12.40;99.90
44431;DHT22;30135;47.866;-4.222;2023-12-04T05:27:01;12.40;99.90
44431;DHT22;30135;47.866;-4.222;2023-12-04T05:29:28;12.40;99.90
44431;DHT22;30135;47.866;-4.222;2023-12-04T05:31:57;12.30;99.90
44431;DHT22;30135;47.866;-4.222;2023-12-04T05:34:24;12.30;99.90
44431;DHT22;30135;47.866;-4.222;2023-12-04T05:36:51;12.30;99.90
44431;DHT22;30135;47.866;-4.222;2023-12-04T05:39:17;12.30;99.90
44431;DHT22;30135;47.866;-4.222;2023-12-04T05:41:43;12.30;99.90
44431;DHT22;30135;47.866;-4.222;2023-12-04T05:44:09;12.30;99.90
44431;DHT22;30135;47.866;-4.222;2023-12-04T05:46:39;12.30;99.90
44431;DHT22;30135;47.866;-4.222;2023-12-04T05:49:04;12.30;99.90
44431;DHT22;30135;47.866;-4.222;2023-12-04T05:51:30;12.30;99.90
44431;DHT22;30135;47.866;-4.222;2023-12-04T05:53:57;12.30;99.90
44431;DHT22;30135;47.866;-4.222;2023-12-04T05:56:23;12.30;99.90
44431;DHT22;30135;47.866;-4.222;2023-12-04T05:58:49;12.30;99.90
44431;DHT22;30135;47.866;-4.222;2023-12-04T06:01:15;12.30;99.90
44431;DHT22;30135;47.866;-4.222;2023-12-04T06:03:41;12.30;99.90
44431;DHT22;30135;47.866;-4.222;2023-12-04T06:06:07;12.30;99.90
44431;DHT22;30135;47.866;-4.222;2023-12-04T06:08:33;12.30;99.90
44431;DHT22;30135;47.866;-4.222;2023-12-04T06:10:59;12.30;99.90
44431;DHT22;30135;47.866;-4.222;2023-12-04T06:13:25;12.30;99.90
44431;DHT22;30135;47.866;-4.222;2023-12-04T06:15:51;12.30;99.90
44431;DHT22;30135;47.866;-4.222;2023-12-04T06:18:18;12.30;99.90
44431;DHT22;30135;47.866;-4.222;2023-12-04T06:20:46;12.30;99.90
44431;DHT22;30135;47.866;-4.222;2023-12-04T06:23:12;12.40;99.90
44431;DHT22;30135;47.866;-4.222;2023-12-04T06:25:38;12.40;99.90
44431;DHT22;30135;47.866;-4.222;2023-12-04T06:28:05;12.40;99.90
44431;DHT22;30135;47.866;-4.222;2023-12-04T06:30:31;12.40;99.90
44431;DHT22;30135;47.866;-4.222;2023-12-04T06:33:00;12.40;99.90
44431;DHT22;30135;47.866;-4.222;2023-12-04T06:35:27;12.40;99.90
44431;DHT22;30135;47.866;-4.222;2023-12-04T06:37:54;12.40;99.90
44431;DHT22;30135;47.866;-4.222;2023-12-04T06:40:21;12.40;99.90
44431;DHT22;30135;47.866;-4.222;2023-12-04T06:42:48;12.40;99.90
44431;DHT22;30135;47.866;-4.222;2023-12-04T06:45:15;12.40;99.90
44431;DHT22;30135;47.866;-4.222;2023-12-04T06:47:43;12.50;99.90
44431;DHT22;30135;47.866;-4.222;2023-12-04T06:50:11;12.50;99.90
44431;DHT22;30135;47.866;-4.222;2023-12-04T06:52:38;12.50;99.90
44431;DHT22;30135;47.866;-4.222;2023-12-04T06:55:04;12.50;99.90
44431;DHT22;30135;47.866;-4.222;2023-12-04T06:57:31;12.50;99.90
44431;DHT22;30135;47.866;-4.222;2023-12-04T06:59:57;12.60;99.90
44431;DHT22;30135;47.866;-4.222;2023-12-04T07:02:23;12.60;99.90
44431;DHT22;30135;47.866;-4.222;2023-12-04T07:04:49;12.60;99.90
44431;DHT22;30135;47.866;-4.222;2023-12-04T07:07:15;12.60;99.90
44431;DHT22;30135;47.866;-4.222;2023-12-04T07:09:41;12.60;99.90
44431;DHT22;30135;47.866;-4.222;2023-12-04T07:12:08;12.60;99.90
44431;DHT22;30135;47.866;-4.222;2023-12-04T07:14:34;12.60;99.90
44431;DHT22;30135;47.866;-4.222;2023-12-04T07:17:00;12.60;99.90
44431;DHT22;30135;47.866;-4.222;2023-12-04T07:19:26;12.60;99.90
44431;DHT22;30135;47.866;-4.222;2023-12-04T07:21:52;12.70;99.90
44431;DHT22;30135;47.866;-4.222;2023-12-04T07:24:19;12.70;99.90
44431;DHT22;30135;47.866;-4.222;2023-12-04T07:26:45;12.70;99.90
44431;DHT22;30135;47.866;-4.222;2023-12-04T07:29:11;12.70;99.90
44431;DHT22;30135;47.866;-4.222;2023-12-04T07:31:37;12.60;99.90
44431;DHT22;30135;47.866;-4.222;2023-12-04T07:34:03;12.70;99.90
44431;DHT22;30135;47.866;-4.222;2023-12-04T07:36:29;12.60;99.90
44431;DHT22;30135;47.866;-4.222;2023-12-04T07:38:56;12.60;99.90
44431;DHT22;30135;47.866;-4.222;2023-12-04T07:41:22;12.60;99.90
44431;DHT22;30135;47.866;-4.222;2023-12-04T07:43:48;12.60;99.90
44431;DHT22;30135;47.866;-4.222;2023-12-04T07:46:14;12.60;99.90
44431;DHT22;30135;47.866;-4.222;2023-12-04T07:48:41;12.50;99.90
44431;DHT22;30135;47.866;-4.222;2023-12-04T07:51:09;12.60;99.90
44431;DHT22;30135;47.866;-4.222;2023-12-04T07:53:35;12.50;99.90
44431;DHT22;30135;47.866;-4.222;2023-12-04T07:56:02;12.50;99.90
44431;DHT22;30135;47.866;-4.222;2023-12-04T07:58:31;12.50;99.90
44431;DHT22;30135;47.866;-4.222;2023-12-04T08:00:58;12.50;99.90
44431;DHT22;30135;47.866;-4.222;2023-12-04T08:03:24;12.50;99.90
44431;DHT22;30135;47.866;-4.222;2023-12-04T08:05:51;12.50;99.90
44431;DHT22;30135;47.866;-4.222;2023-12-04T08:08:17;12.50;99.90
44431;DHT22;30135;47.866;-4.222;2023-12-04T08:10:43;12.50;99.90
44431;DHT22;30135;47.866;-4.222;2023-12-04T08:13:09;12.40;99.90
44431;DHT22;30135;47.866;-4.222;2023-12-04T08:15:35;12.50;99.90
44431;DHT22;30135;47.866;-4.222;2023-12-04T08:18:01;12.40;99.90
44431;DHT22;30135;47.866;-4.222;2023-12-04T08:20:28;12.50;99.90
44431;DHT22;30135;47.866;-4.222;2023-12-04T08:22:54;12.40;99.90
44431;DHT22;30135;47.866;-4.222;2023-12-04T08:25:20;12.40;99.90
44431;DHT22;30135;47.866;-4.222;2023-12-04T08:27:46;12.40;99.90
44431;DHT22;30135;47.866;-4.222;2023-12-04T08:30:15;12.40;99.90
44431;DHT22;30135;47.866;-4.222;2023-12-04T08:32:41;12.40;99.90
44431;DHT22;30135;47.866;-4.222;2023-12-04T08:35:07;12.40;99.90
44431;DHT22;30135;47.866;-4.222;2023-12-04T08:37:33;12.40;99.90
44431;DHT22;30135;47.866;-4.222;2023-12-04T08:39:59;12.40;99.90
44431;DHT22;30135;47.866;-4.222;2023-12-04T08:42:25;12.40;99.90
44431;DHT22;30135;47.866;-4.222;2023-12-04T08:44:51;12.40;99.90
44431;DHT22;30135;47.866;-4.222;2023-12-04T08:47:18;12.40;99.90
44431;DHT22;30135;47.866;-4.222;2023-12-04T08:49:44;12.40;99.90
44431;DHT22;30135;47.866;-4.222;2023-12-04T08:52:10;12.40;99.90
44431;DHT22;30135;47.866;-4.222;2023-12-04T08:54:40;12.40;99.90
44431;DHT22;30135;47.866;-4.222;2023-12-04T08:57:07;12.40;99.90
44431;DHT22;30135;47.866;-4.222;2023-12-04T08:59:34;12.40;99.90
44431;DHT22;30135;47.866;-4.222;2023-12-04T09:02:01;12.40;99.90
44431;DHT22;30135;47.866;-4.222;2023-12-04T09:04:31;12.40;99.90
44431;DHT22;30135;47.866;-4.222;2023-12-04T09:06:57;12.40;99.90
44431;DHT22;30135;47.866;-4.222;2023-12-04T09:09:24;12.50;99.90
44431;DHT22;30135;47.866;-4.222;2023-12-04T09:11:50;12.40;99.90
44431;DHT22;30135;47.866;-4.222;2023-12-04T09:14:16;12.40;99.90
44431;DHT22;30135;47.866;-4.222;2023-12-04T09:16:42;12.50;99.90
44431;DHT22;30135;47.866;-4.222;2023-12-04T09:19:09;12.50;99.90
44431;DHT22;30135;47.866;-4.222;2023-12-04T09:21:35;12.50;99.90
44431;DHT22;30135;47.866;-4.222;2023-12-04T09:24:01;12.50;99.90
44431;DHT22;30135;47.866;-4.222;2023-12-04T09:26:28;12.50;99.90
44431;DHT22;30135;47.866;-4.222;2023-12-04T09:28:54;12.40;99.90
44431;DHT22;30135;47.866;-4.222;2023-12-04T09:31:21;12.40;99.90
44431;DHT22;30135;47.866;-4.222;2023-12-04T09:33:47;12.50;99.90
44431;DHT22;30135;47.866;-4.222;2023-12-04T09:36:13;12.40;99.90
44431;DHT22;30135;47.866;-4.222;2023-12-04T09:38:39;12.50;99.90
44431;DHT22;30135;47.866;-4.222;2023-12-04T09:41:06;12.40;99.90
44431;DHT22;30135;47.866;-4.222;2023-12-04T09:43:45;12.40;99.90
44431;DHT22;30135;47.866;-4.222;2023-12-04T09:46:12;12.40;99.90
44431;DHT22;30135;47.866;-4.222;2023-12-04T09:48:41;12.40;99.90
44431;DHT22;30135;47.866;-4.222;2023-12-04T09:51:09;12.40;99.90
44431;DHT22;30135;47.866;-4.222;2023-12-04T09:53:36;12.40;99.90
44431;DHT22;30135;47.866;-4.222;2023-12-04T09:56:07;12.40;99.90
44431;DHT22;30135;47.866;-4.222;2023-12-04T09:58:36;12.40;99.90
44431;DHT22;30135;47.866;-4.222;2023-12-04T10:01:07;12.30;99.90
44431;DHT22;30135;47.866;-4.222;2023-12-04T10:03:35;12.30;99.90
44431;DHT22;30135;47.866;-4.222;2023-12-04T10:06:01;12.30;99.90
44431;DHT22;30135;47.866;-4.222;2023-12-04T10:08:27;12.30;99.90
44431;DHT22;30135;47.866;-4.222;2023-12-04T10:10:53;12.30;99.90
44431;DHT22;30135;47.866;-4.222;2023-12-04T10:13:19;12.30;99.90
44431;DHT22;30135;47.866;-4.222;2023-12-04T10:15:50;12.30;99.90
44431;DHT22;30135;47.866;-4.222;2023-12-04T10:18:28;12.30;99.90
44431;DHT22;30135;47.866;-4.222;2023-12-04T10:20:56;12.30;99.90
44431;DHT22;30135;47.866;-4.222;2023-12-04T10:23:36;12.30;99.90
44431;DHT22;30135;47.866;-4.222;2023-12-04T10:26:08;12.30;99.90
44431;DHT22;30135;47.866;-4.222;2023-12-04T10:28:35;12.30;99.90
44431;DHT22;30135;47.866;-4.222;2023-12-04T10:31:02;12.20;99.90
44431;DHT22;30135;47.866;-4.222;2023-12-04T10:33:35;12.20;99.90
44431;DHT22;30135;47.866;-4.222;2023-12-04T10:36:11;12.20;99.90
44431;DHT22;30135;47.866;-4.222;2023-12-04T10:38:38;12.30;99.90
44431;DHT22;30135;47.866;-4.222;2023-12-04T10:41:12;12.20;99.90
44431;DHT22;30135;47.866;-4.222;2023-12-04T10:43:47;12.20;99.90
44431;DHT22;30135;47.866;-4.222;2023-12-04T10:46:15;12.10;99.90
44431;DHT22;30135;47.866;-4.222;2023-12-04T10:48:47;12.10;99.90
44431;DHT22;30135;47.866;-4.222;2023-12-04T10:51:15;12.10;99.90
44431;DHT22;30135;47.866;-4.222;2023-12-04T10:53:42;12.10;99.90
44431;DHT22;30135;47.866;-4.222;2023-12-04T10:56:24;12.10;99.90
44431;DHT22;30135;47.866;-4.222;2023-12-04T10:58:53;12.10;99.90
44431;DHT22;30135;47.866;-4.222;2023-12-04T11:01:23;12.10;99.90
44431;DHT22;30135;47.866;-4.222;2023-12-04T11:03:52;12.20;99.90
44431;DHT22;30135;47.866;-4.222;2023-12-04T11:06:22;12.10;99.90
44431;DHT22;30135;47.866;-4.222;2023-12-04T11:08:52;12.20;99.90
44431;DHT22;30135;47.866;-4.222;2023-12-04T11:11:27;12.10;99.90
44431;DHT22;30135;47.866;-4.222;2023-12-04T11:14:03;12.20;99.90
44431;DHT22;30135;47.866;-4.222;2023-12-04T11:21:47;12.10;99.90
44431;DHT22;30135;47.866;-4.222;2023-12-04T11:24:17;12.10;99.90
44431;DHT22;30135;47.866;-4.222;2023-12-04T11:26:43;12.10;99.90
44431;DHT22;30135;47.866;-4.222;2023-12-04T11:29:11;12.10;99.90
44431;DHT22;30135;47.866;-4.222;2023-12-04T11:31:38;12.10;99.90
44431;DHT22;30135;47.866;-4.222;2023-12-04T11:34:04;12.00;99.90
44431;DHT22;30135;47.866;-4.222;2023-12-04T11:36:35;12.10;99.90
44431;DHT22;30135;47.866;-4.222;2023-12-04T11:39:02;12.00;99.90
44431;DHT22;30135;47.866;-4.222;2023-12-04T11:41:29;12.00;99.90
44431;DHT22;30135;47.866;-4.222;2023-12-04T11:43:57;12.00;99.90
44431;DHT22;30135;47.866;-4.222;2023-12-04T11:46:25;11.90;99.90
44431;DHT22;30135;47.866;-4.222;2023-12-04T11:48:57;11.90;99.90
44431;DHT22;30135;47.866;-4.222;2023-12-04T11:52:08;11.90;99.90
44431;DHT22;30135;47.866;-4.222;2023-12-04T11:55:07;11.80;99.90
44431;DHT22;30135;47.866;-4.222;2023-12-04T11:57:40;11.80;99.90
44431;DHT22;30135;47.866;-4.222;2023-12-04T12:05:22;11.70;99.90
44431;DHT22;30135;47.866;-4.222;2023-12-04T12:07:49;11.70;99.90
44431;DHT22;30135;47.866;-4.222;2023-12-04T12:10:18;11.70;99.90
44431;DHT22;30135;47.866;-4.222;2023-12-04T12:12:45;11.70;99.90
44431;DHT22;30135;47.866;-4.222;2023-12-04T12:15:12;11.70;99.90
44431;DHT22;30135;47.866;-4.222;2023-12-04T12:17:39;11.70;99.90
44431;DHT22;30135;47.866;-4.222;2023-12-04T12:20:07;11.70;99.90
44431;DHT22;30135;47.866;-4.222;2023-12-04T12:22:36;11.70;99.90
44431;DHT22;30135;47.866;-4.222;2023-12-04T12:25:10;11.70;99.90
44431;DHT22;30135;47.866;-4.222;2023-12-04T12:27:37;11.70;99.90
44431;DHT22;30135;47.866;-4.222;2023-12-04T12:30:04;11.70;99.90
44431;DHT22;30135;47.866;-4.222;2023-12-04T12:32:32;11.70;99.90
44431;DHT22;30135;47.866;-4.222;2023-12-04T12:34:59;11.70;99.90
44431;DHT22;30135;47.866;-4.222;2023-12-04T12:37:25;11.70;99.90
44431;DHT22;30135;47.866;-4.222;2023-12-04T12:39:52;11.60;99.90
44431;DHT22;30135;47.866;-4.222;2023-12-04T12:42:25;11.60;99.90
44431;DHT22;30135;47.866;-4.222;2023-12-04T12:44:53;11.60;99.90
44431;DHT22;30135;47.866;-4.222;2023-12-04T12:47:21;11.60;99.90
44431;DHT22;30135;47.866;-4.222;2023-12-04T12:49:47;11.50;99.90
44431;DHT22;30135;47.866;-4.222;2023-12-04T12:52:14;11.50;99.90
44431;DHT22;30135;47.866;-4.222;2023-12-04T12:54:41;11.50;99.90
44431;DHT22;30135;47.866;-4.222;2023-12-04T12:57:09;11.50;99.90
44431;DHT22;30135;47.866;-4.222;2023-12-04T12:59:38;11.50;99.90
44431;DHT22;30135;47.866;-4.222;2023-12-04T13:02:05;11.50;99.90
44431;DHT22;30135;47.866;-4.222;2023-12-04T13:04:36;11.50;99.90
44431;DHT22;30135;47.866;-4.222;2023-12-04T13:07:03;11.50;99.90
44431;DHT22;30135;47.866;-4.222;2023-12-04T13:09:30;11.50;99.90
44431;DHT22;30135;47.866;-4.222;2023-12-04T13:11:56;11.50;99.90
44431;DHT22;30135;47.866;-4.222;2023-12-04T13:14:22;11.50;99.90
44431;DHT22;30135;47.866;-4.222;2023-12-04T13:16:48;11.50;99.90
44431;DHT22;30135;47.866;-4.222;2023-12-04T13:19:15;11.40;99.90
44431;DHT22;30135;47.866;-4.222;2023-12-04T13:21:43;11.40;99.90
44431;DHT22;30135;47.866;-4.222;2023-12-04T13:24:13;11.40;99.90
44431;DHT22;30135;47.866;-4.222;2023-12-04T13:26:39;11.40;99.90
44431;DHT22;30135;47.866;-4.222;2023-12-04T13:29:05;11.40;99.90
44431;DHT22;30135;47.866;-4.222;2023-12-04T13:31:33;11.40;99.90
44431;DHT22;30135;47.866;-4.222;2023-12-04T13:33:59;11.40;99.90
44431;DHT22;30135;47.866;-4.222;2023-12-04T13:36:25;11.40;99.90
44431;DHT22;30135;47.866;-4.222;2023-12-04T13:38:52;11.30;99.90
44431;DHT22;30135;47.866;-4.222;2023-12-04T13:41:19;11.40;99.90
44431;DHT22;30135;47.866;-4.222;2023-12-04T13:44:04;11.30;99.90
44431;DHT22;30135;47.866;-4.222;2023-12-04T13:46:30;11.30;99.90
44431;DHT22;30135;47.866;-4.222;2023-12-04T13:48:57;11.30;99.90
44431;DHT22;30135;47.866;-4.222;2023-12-04T13:51:23;11.30;99.90
44431;DHT22;30135;47.866;-4.222;2023-12-04T13:53:51;11.30;99.90
44431;DHT22;30135;47.866;-4.222;2023-12-04T13:56:22;11.30;99.90
44431;DHT22;30135;47.866;-4.222;2023-12-04T13:59:07;11.30;99.90
44431;DHT22;30135;47.866;-4.222;2023-12-04T14:01:33;11.30;99.90
44431;DHT22;30135;47.866;-4.222;2023-12-04T14:03:59;11.30;99.90
44431;DHT22;30135;47.866;-4.222;2023-12-04T14:06:29;11.30;99.90
44431;DHT22;30135;47.866;-4.222;2023-12-04T14:08:57;11.30;99.90
44431;DHT22;30135;47.866;-4.222;2023-12-04T14:11:24;11.30;99.90
44431;DHT22;30135;47.866;-4.222;2023-12-04T14:13:50;11.30;99.90
44431;DHT22;30135;47.866;-4.222;2023-12-04T14:16:17;11.30;99.90
44431;DHT22;30135;47.866;-4.222;2023-12-04T14:18:43;11.20;99.90
44431;DHT22;30135;47.866;-4.222;2023-12-04T14:21:09;11.20;99.90
44431;DHT22;30135;47.866;-4.222;2023-12-04T14:23:35;11.20;99.90
44431;DHT22;30135;47.866;-4.222;2023-12-04T14:26:02;11.20;99.90
44431;DHT22;30135;47.866;-4.222;2023-12-04T14:28:28;11.10;99.90
44431;DHT22;30135;47.866;-4.222;2023-12-04T14:30:55;11.10;99.90
44431;DHT22;30135;47.866;-4.222;2023-12-04T14:33:21;11.10;99.90
44431;DHT22;30135;47.866;-4.222;2023-12-04T14:35:48;11.00;99.90
44431;DHT22;30135;47.866;-4.222;2023-12-04T14:38:14;11.10;99.90
44431;DHT22;30135;47.866;-4.222;2023-12-04T14:40:40;11.10;99.90
44431;DHT22;30135;47.866;-4.222;2023-12-04T14:43:06;11.00;99.90
44431;DHT22;30135;47.866;-4.222;2023-12-04T14:45:35;11.00;99.90
44431;DHT22;30135;47.866;-4.222;2023-12-04T14:48:02;11.00;99.90
44431;DHT22;30135;47.866;-4.222;2023-12-04T14:50:35;11.00;99.90
44431;DHT22;30135;47.866;-4.222;2023-12-04T14:53:03;10.90;99.90
44431;DHT22;30135;47.866;-4.222;2023-12-04T14:55:44;10.90;99.90
44431;DHT22;30135;47.866;-4.222;2023-12-04T14:58:16;10.90;99.80
44431;DHT22;30135;47.866;-4.222;2023-12-04T15:00:42;10.90;99.90
44431;DHT22;30135;47.866;-4.222;2023-12-04T15:03:26;10.90;99.90
44431;DHT22;30135;47.866;-4.222;2023-12-04T15:06:10;10.90;99.90
44431;DHT22;30135;47.866;-4.222;2023-12-04T15:08:39;10.90;99.90
44431;DHT22;30135;47.866;-4.222;2023-12-04T15:11:14;10.90;99.90
44431;DHT22;30135;47.866;-4.222;2023-12-04T15:13:59;10.80;99.90
44431;DHT22;30135;47.866;-4.222;2023-12-04T15:16:34;10.90;99.80
44431;DHT22;30135;47.866;-4.222;2023-12-04T15:19:05;10.80;99.70
44431;DHT22;30135;47.866;-4.222;2023-12-04T15:21:50;10.80;99.60
44431;DHT22;30135;47.866;-4.222;2023-12-04T15:24:16;10.80;99.60
44431;DHT22;30135;47.866;-4.222;2023-12-04T15:26:42;10.80;99.40
44431;DHT22;30135;47.866;-4.222;2023-12-04T15:29:08;10.80;99.20